createdAt,value
2019-02-22T00:00:17.000Z,24.74
2019-02-22T00:10:17.000Z,24.7
2019-02-22T00:20:17.000Z,24.62
2019-02-22T00:30:17.000Z,24.58
2019-02-22T00:40:17.000Z,24.53
2019-02-22T00:50:17.000Z,24.49
2019-02-22T01:00:18.000Z,24.43
2019-02-22T01:10:17.000Z,24.41
2019-02-22T01:20:17.000Z,24.37
2019-02-22T01:30:17.000Z,24.31
2019-02-22T01:40:17.000Z,24.29
2019-02-22T01:50:17.000Z,24.2
2019-02-22T02:00:17.000Z,24.17
2019-02-22T02:10:17.000Z,24.12
2019-02-22T02:20:17.000Z,24.1
2019-02-22T02:30:17.000Z,24.06
2019-02-22T02:40:17.000Z,24.02
2019-02-22T02:50:17.000Z,23.97
2019-02-22T03:10:17.000Z,23.89
2019-02-22T03:20:17.000Z,23.85
2019-02-22T03:30:17.000Z,23.84
2019-02-22T03:40:17.000Z,23.78
2019-02-22T03:50:17.000Z,23.78
2019-02-22T04:00:17.000Z,23.69
2019-02-22T04:10:17.000Z,23.7
2019-02-22T04:20:17.000Z,23.64
2019-02-22T04:30:17.000Z,23.62
2019-02-22T04:40:17.000Z,23.54
2019-02-22T04:50:17.000Z,23.5
2019-02-22T05:00:17.000Z,23.49
2019-02-22T05:10:17.000Z,23.49
2019-02-22T05:20:18.000Z,23.46
2019-02-22T05:30:18.000Z,23.46
2019-02-22T05:40:18.000Z,23.44
2019-02-22T05:50:19.000Z,23.44
2019-02-22T06:00:18.000Z,23.44
2019-02-22T06:10:18.000Z,23.42
2019-02-22T06:20:18.000Z,23.46
2019-02-22T06:30:18.000Z,23.44
2019-02-22T06:40:18.000Z,23.45
2019-02-22T06:50:18.000Z,23.44
2019-02-22T07:00:18.000Z,23.47
2019-02-22T07:10:18.000Z,23.52
2019-02-22T07:20:18.000Z,23.53
2019-02-22T07:30:18.000Z,23.55
2019-02-22T07:40:18.000Z,23.6
2019-02-22T07:50:18.000Z,23.57
2019-02-22T08:00:18.000Z,23.66
2019-02-22T08:10:18.000Z,23.66
2019-02-22T08:20:18.000Z,23.71
2019-02-22T08:30:18.000Z,23.72
2019-02-22T08:40:18.000Z,23.73
2019-02-22T08:50:18.000Z,23.72
2019-02-22T09:00:18.000Z,23.75
2019-02-22T09:10:18.000Z,23.8
2019-02-22T09:20:18.000Z,23.83
2019-02-22T09:30:18.000Z,23.87
2019-02-22T09:40:18.000Z,23.89
2019-02-22T09:50:18.000Z,23.91
2019-02-22T10:00:18.000Z,23.94
2019-02-22T10:10:18.000Z,23.94
2019-02-22T10:20:18.000Z,24.01
2019-02-22T10:30:18.000Z,24.03
2019-02-22T10:40:18.000Z,24.09
2019-02-22T10:50:18.000Z,24.12
2019-02-22T11:00:18.000Z,24.2
2019-02-22T11:10:18.000Z,24.2
2019-02-22T11:20:18.000Z,24.26
2019-02-22T11:30:18.000Z,24.34
2019-02-22T11:40:18.000Z,24.35
2019-02-22T11:50:19.000Z,24.41
2019-02-22T12:00:18.000Z,24.44
2019-02-22T12:10:18.000Z,24.46
2019-02-22T12:20:18.000Z,24.48
2019-02-22T12:30:18.000Z,24.48
2019-02-22T12:40:18.000Z,24.5
2019-02-22T12:50:22.000Z,24.5
2019-02-22T13:00:18.000Z,24.52
2019-02-22T13:10:18.000Z,24.54
2019-02-22T13:20:18.000Z,24.53
2019-02-22T13:30:19.000Z,24.53
2019-02-22T13:40:19.000Z,24.56
2019-02-22T14:00:19.000Z,24.58
2019-02-22T14:10:19.000Z,24.6
2019-02-22T14:20:19.000Z,24.59
2019-02-22T14:30:19.000Z,24.6
2019-02-22T14:40:19.000Z,24.6
2019-02-22T14:50:19.000Z,24.59
2019-02-22T15:00:19.000Z,24.61
2019-02-22T15:10:19.000Z,24.6
2019-02-22T15:20:19.000Z,24.55
2019-02-22T15:30:19.000Z,24.56
2019-02-22T15:40:19.000Z,24.58
2019-02-22T15:50:19.000Z,24.57
2019-02-22T16:00:19.000Z,24.53
2019-02-22T16:10:19.000Z,24.54
2019-02-22T16:20:19.000Z,24.56
2019-02-22T16:30:19.000Z,24.53
2019-02-22T16:40:19.000Z,24.54
2019-02-22T16:50:19.000Z,24.53
2019-02-22T17:00:19.000Z,24.54
2019-02-22T17:10:19.000Z,24.51
2019-02-22T17:20:19.000Z,24.53
2019-02-22T17:30:19.000Z,24.51
2019-02-22T17:40:19.000Z,24.51
2019-02-22T17:50:19.000Z,24.51
2019-02-22T18:00:19.000Z,24.51
2019-02-22T18:10:19.000Z,24.5
2019-02-22T18:20:19.000Z,24.49
2019-02-22T18:30:19.000Z,24.46
2019-02-22T18:40:19.000Z,24.46
2019-02-22T18:50:20.000Z,24.47
2019-02-22T19:00:19.000Z,24.46
2019-02-22T19:10:19.000Z,24.43
2019-02-22T19:20:19.000Z,24.43
2019-02-22T19:30:19.000Z,24.43
2019-02-22T19:40:19.000Z,24.41
2019-02-22T19:50:19.000Z,24.37
2019-02-22T20:00:19.000Z,24.35
2019-02-22T20:20:19.000Z,24.31
2019-02-22T20:30:20.000Z,24.3
2019-02-22T20:40:21.000Z,24.29
2019-02-22T20:50:19.000Z,24.25
2019-02-22T21:00:19.000Z,24.21
2019-02-22T21:10:19.000Z,24.21
2019-02-22T21:20:21.000Z,24.16
2019-02-22T21:30:20.000Z,24.14
2019-02-22T21:40:19.000Z,24.12
2019-02-22T21:50:21.000Z,24.08
2019-02-22T22:00:20.000Z,24.1
2019-02-22T22:10:20.000Z,24.06
2019-02-22T22:20:20.000Z,24.08
2019-02-22T22:30:21.000Z,24.05
2019-02-22T22:40:21.000Z,24.04
2019-02-22T23:00:20.000Z,24.025
2019-02-22T23:10:20.000Z,24.01
2019-02-22T23:20:20.000Z,24
2019-02-22T23:30:21.000Z,24
2019-02-22T23:40:20.000Z,23.96
